Terminal Aerodrome Forecast
Issued by NWS Sterling, VA

Current Version | Previous Version | Graphics & Text | Print | Product List | Glossary On
Versions: 1 2 3 4 5 6 7 8 9 10 11 12 13 14 15 16 17 18 19 20 21 22 23 24 25 26
000
FTUS41 KLWX 170800 AAA
TAFIAD
TAF AMD
KIAD 170834Z 1709/1812 VRB03KT P6SM SKC
     FM171500 12008KT P6SM FEW035
     FM172000 11011KT P6SM BKN025
     FM180400 10007KT P6SM BKN025=

USA.gov is the U.S. government's official web portal to all federal, state and local government web resources and services.